sensor_id;sensor_type;location;lat;lon;timestamp;temperature;humidity
20483;DHT22;10400;53.198;6.592;2024-03-02T00:01:10;8.10;99.90
20483;DHT22;10400;53.198;6.592;2024-03-02T00:03:37;8.10;99.90
20483;DHT22;10400;53.198;6.592;2024-03-02T00:06:03;8.10;99.90
20483;DHT22;10400;53.198;6.592;2024-03-02T00:08:29;8.00;99.90
20483;DHT22;10400;53.198;6.592;2024-03-02T00:11:00;8.10;99.90
20483;DHT22;10400;53.198;6.592;2024-03-02T00:13:26;8.00;99.90
20483;DHT22;10400;53.198;6.592;2024-03-02T00:15:53;8.00;99.90
20483;DHT22;10400;53.198;6.592;2024-03-02T00:18:27;8.00;99.90
20483;DHT22;10400;53.198;6.592;2024-03-02T00:20:56;8.00;99.90
20483;DHT22;10400;53.198;6.592;2024-03-02T00:23:22;8.00;99.90
20483;DHT22;10400;53.198;6.592;2024-03-02T00:31:13;7.90;99.90
20483;DHT22;10400;53.198;6.592;2024-03-02T00:33:44;7.90;99.90
20483;DHT22;10400;53.198;6.592;2024-03-02T00:36:15;7.90;99.90
20483;DHT22;10400;53.198;6.592;2024-03-02T00:38:51;7.90;99.90
20483;DHT22;10400;53.198;6.592;2024-03-02T00:41:27;8.00;99.90
20483;DHT22;10400;53.198;6.592;2024-03-02T00:44:03;8.00;99.90
20483;DHT22;10400;53.198;6.592;2024-03-02T00:46:40;7.90;99.90
20483;DHT22;10400;53.198;6.592;2024-03-02T00:49:22;7.90;99.90
20483;DHT22;10400;53.198;6.592;2024-03-02T00:51:51;7.90;99.90
20483;DHT22;10400;53.198;6.592;2024-03-02T00:54:22;8.00;99.90
20483;DHT22;10400;53.198;6.592;2024-03-02T00:56:49;8.00;99.90
20483;DHT22;10400;53.198;6.592;2024-03-02T00:59:15;8.10;99.90
20483;DHT22;10400;53.198;6.592;2024-03-02T01:01:41;8.10;99.90
20483;DHT22;10400;53.198;6.592;2024-03-02T01:04:07;8.10;99.90
20483;DHT22;10400;53.198;6.592;2024-03-02T01:06:33;8.00;99.90
20483;DHT22;10400;53.198;6.592;2024-03-02T01:08:59;8.10;99.90
20483;DHT22;10400;53.198;6.592;2024-03-02T01:11:24;8.10;99.90
20483;DHT22;10400;53.198;6.592;2024-03-02T01:13:51;8.00;99.90
20483;DHT22;10400;53.198;6.592;2024-03-02T01:16:17;8.10;99.90
20483;DHT22;10400;53.198;6.592;2024-03-02T01:18:43;8.10;99.90
20483;DHT22;10400;53.198;6.592;2024-03-02T01:21:09;8.00;99.90
20483;DHT22;10400;53.198;6.592;2024-03-02T01:23:34;8.00;99.90
20483;DHT22;10400;53.198;6.592;2024-03-02T01:26:00;8.00;99.90
20483;DHT22;10400;53.198;6.592;2024-03-02T01:28:26;8.00;99.90
20483;DHT22;10400;53.198;6.592;2024-03-02T01:30:51;8.00;99.90
20483;DHT22;10400;53.198;6.592;2024-03-02T01:33:18;8.00;99.90
20483;DHT22;10400;53.198;6.592;2024-03-02T01:35:44;8.00;99.90
20483;DHT22;10400;53.198;6.592;2024-03-02T01:38:10;8.00;99.90
20483;DHT22;10400;53.198;6.592;2024-03-02T01:40:37;8.00;99.90
20483;DHT22;10400;53.198;6.592;2024-03-02T01:43:04;7.90;99.90
20483;DHT22;10400;53.198;6.592;2024-03-02T01:45:30;8.00;99.90
20483;DHT22;10400;53.198;6.592;2024-03-02T01:47:56;8.00;99.90
20483;DHT22;10400;53.198;6.592;2024-03-02T01:50:31;8.00;99.90
20483;DHT22;10400;53.198;6.592;2024-03-02T01:52:57;8.10;99.90
20483;DHT22;10400;53.198;6.592;2024-03-02T01:55:22;8.10;99.90
20483;DHT22;10400;53.198;6.592;2024-03-02T01:57:52;8.10;99.90
20483;DHT22;10400;53.198;6.592;2024-03-02T02:00:18;8.20;99.90
20483;DHT22;10400;53.198;6.592;2024-03-02T02:02:45;8.20;99.90
20483;DHT22;10400;53.198;6.592;2024-03-02T02:05:12;8.20;99.90
20483;DHT22;10400;53.198;6.592;2024-03-02T02:07:38;8.20;99.90
20483;DHT22;10400;53.198;6.592;2024-03-02T02:10:04;8.20;99.90
20483;DHT22;10400;53.198;6.592;2024-03-02T02:12:30;8.20;99.90
20483;DHT22;10400;53.198;6.592;2024-03-02T02:14:55;8.20;99.90
20483;DHT22;10400;53.198;6.592;2024-03-02T02:17:21;8.20;99.90
20483;DHT22;10400;53.198;6.592;2024-03-02T02:19:47;8.20;99.90
20483;DHT22;10400;53.198;6.592;2024-03-02T02:22:13;8.20;99.90
20483;DHT22;10400;53.198;6.592;2024-03-02T02:24:42;8.20;99.90
20483;DHT22;10400;53.198;6.592;2024-03-02T02:27:10;8.30;99.90
20483;DHT22;10400;53.198;6.592;2024-03-02T02:29:38;8.30;99.90
20483;DHT22;10400;53.198;6.592;2024-03-02T02:32:03;8.30;99.90
20483;DHT22;10400;53.198;6.592;2024-03-02T02:34:29;8.30;99.90
20483;DHT22;10400;53.198;6.592;2024-03-02T02:36:55;8.30;99.90
20483;DHT22;10400;53.198;6.592;2024-03-02T02:39:22;8.30;99.90
20483;DHT22;10400;53.198;6.592;2024-03-02T02:41:48;8.20;99.90
20483;DHT22;10400;53.198;6.592;2024-03-02T02:44:14;8.30;99.90
20483;DHT22;10400;53.198;6.592;2024-03-02T02:46:40;8.20;99.90
20483;DHT22;10400;53.198;6.592;2024-03-02T02:49:06;8.20;99.90
20483;DHT22;10400;53.198;6.592;2024-03-02T02:51:32;8.30;99.90
20483;DHT22;10400;53.198;6.592;2024-03-02T02:53:57;8.30;99.90
20483;DHT22;10400;53.198;6.592;2024-03-02T02:56:23;8.40;99.90
20483;DHT22;10400;53.198;6.592;2024-03-02T02:58:49;8.30;99.90
20483;DHT22;10400;53.198;6.592;2024-03-02T03:01:17;8.40;99.90
20483;DHT22;10400;53.198;6.592;2024-03-02T03:03:44;8.40;99.90
20483;DHT22;10400;53.198;6.592;2024-03-02T03:06:10;8.50;99.90
20483;DHT22;10400;53.198;6.592;2024-03-02T03:08:36;8.50;99.90
20483;DHT22;10400;53.198;6.592;2024-03-02T03:11:02;8.60;99.90
20483;DHT22;10400;53.198;6.592;2024-03-02T03:13:28;8.60;99.90
20483;DHT22;10400;53.198;6.592;2024-03-02T03:15:53;8.60;99.90
20483;DHT22;10400;53.198;6.592;2024-03-02T03:18:19;8.70;99.90
20483;DHT22;10400;53.198;6.592;2024-03-02T03:20:45;8.70;99.90
20483;DHT22;10400;53.198;6.592;2024-03-02T03:23:11;8.70;99.90
20483;DHT22;10400;53.198;6.592;2024-03-02T03:25:41;8.80;99.90
20483;DHT22;10400;53.198;6.592;2024-03-02T03:28:07;8.80;99.90
20483;DHT22;10400;53.198;6.592;2024-03-02T03:30:38;8.80;99.90
20483;DHT22;10400;53.198;6.592;2024-03-02T03:33:04;8.80;99.90
20483;DHT22;10400;53.198;6.592;2024-03-02T03:35:33;8.80;99.90
20483;DHT22;10400;53.198;6.592;2024-03-02T03:37:59;8.90;99.90
20483;DHT22;10400;53.198;6.592;2024-03-02T03:40:25;8.80;99.90
20483;DHT22;10400;53.198;6.592;2024-03-02T03:42:51;8.80;99.90
20483;DHT22;10400;53.198;6.592;2024-03-02T03:45:17;8.80;99.90
20483;DHT22;10400;53.198;6.592;2024-03-02T03:47:42;8.80;99.90
20483;DHT22;10400;53.198;6.592;2024-03-02T03:50:09;8.80;99.90
20483;DHT22;10400;53.198;6.592;2024-03-02T03:52:34;8.80;99.90
20483;DHT22;10400;53.198;6.592;2024-03-02T03:55:00;8.70;99.90
20483;DHT22;10400;53.198;6.592;2024-03-02T03:57:26;8.70;99.90
20483;DHT22;10400;53.198;6.592;2024-03-02T03:59:52;8.70;99.90
20483;DHT22;10400;53.198;6.592;2024-03-02T04:02:18;8.70;99.90
20483;DHT22;10400;53.198;6.592;2024-03-02T04:04:44;8.70;99.90
20483;DHT22;10400;53.198;6.592;2024-03-02T04:07:10;8.60;99.90
20483;DHT22;10400;53.198;6.592;2024-03-02T04:09:35;8.60;99.90
20483;DHT22;10400;53.198;6.592;2024-03-02T04:12:01;8.60;99.90
20483;DHT22;10400;53.198;6.592;2024-03-02T04:14:27;8.50;99.90
20483;DHT22;10400;53.198;6.592;2024-03-02T04:16:52;8.50;99.90
20483;DHT22;10400;53.198;6.592;2024-03-02T04:19:18;8.40;99.90
20483;DHT22;10400;53.198;6.592;2024-03-02T04:21:44;8.50;99.90
20483;DHT22;10400;53.198;6.592;2024-03-02T04:24:09;8.40;99.90
20483;DHT22;10400;53.198;6.592;2024-03-02T04:26:35;8.40;99.90
20483;DHT22;10400;53.198;6.592;2024-03-02T04:29:00;8.40;99.90
20483;DHT22;10400;53.198;6.592;2024-03-02T04:31:27;8.50;99.90
20483;DHT22;10400;53.198;6.592;2024-03-02T04:33:52;8.50;99.90
20483;DHT22;10400;53.198;6.592;2024-03-02T04:36:19;8.50;99.90
20483;DHT22;10400;53.198;6.592;2024-03-02T04:38:45;8.50;99.90
20483;DHT22;10400;53.198;6.592;2024-03-02T04:41:10;8.50;99.90
20483;DHT22;10400;53.198;6.592;2024-03-02T04:43:36;8.50;99.90
20483;DHT22;10400;53.198;6.592;2024-03-02T04:46:02;8.50;99.90
20483;DHT22;10400;53.198;6.592;2024-03-02T04:48:27;8.60;99.90
20483;DHT22;10400;53.198;6.592;2024-03-02T04:50:53;8.60;99.90
20483;DHT22;10400;53.198;6.592;2024-03-02T04:53:19;8.60;99.90
20483;DHT22;10400;53.198;6.592;2024-03-02T04:55:44;8.60;99.90
20483;DHT22;10400;53.198;6.592;2024-03-02T04:58:29;8.60;99.90
20483;DHT22;10400;53.198;6.592;2024-03-02T05:00:54;8.70;99.90
20483;DHT22;10400;53.198;6.592;2024-03-02T05:03:20;8.70;99.90
20483;DHT22;10400;53.198;6.592;2024-03-02T05:05:46;8.70;99.90
20483;DHT22;10400;53.198;6.592;2024-03-02T05:08:12;8.60;99.90
20483;DHT22;10400;53.198;6.592;2024-03-02T05:10:37;8.60;99.90
20483;DHT22;10400;53.198;6.592;2024-03-02T05:13:03;8.50;99.90
20483;DHT22;10400;53.198;6.592;2024-03-02T05:15:29;8.50;99.90
20483;DHT22;10400;53.198;6.592;2024-03-02T05:17:54;8.50;99.90
20483;DHT22;10400;53.198;6.592;2024-03-02T05:20:22;8.40;99.90
20483;DHT22;10400;53.198;6.592;2024-03-02T05:22:47;8.40;99.90
20483;DHT22;10400;53.198;6.592;2024-03-02T05:25:14;8.40;99.90
20483;DHT22;10400;53.198;6.592;2024-03-02T05:27:39;8.40;99.90
20483;DHT22;10400;53.198;6.592;2024-03-02T05:30:05;8.40;99.90
20483;DHT22;10400;53.198;6.592;2024-03-02T05:32:32;8.50;99.90
20483;DHT22;10400;53.198;6.592;2024-03-02T05:34:57;8.50;99.90
20483;DHT22;10400;53.198;6.592;2024-03-02T05:37:23;8.40;99.90
20483;DHT22;10400;53.198;6.592;2024-03-02T05:39:48;8.40;99.90
20483;DHT22;10400;53.198;6.592;2024-03-02T05:42:14;8.40;99.90
20483;DHT22;10400;53.198;6.592;2024-03-02T05:44:42;8.40;99.90
20483;DHT22;10400;53.198;6.592;2024-03-02T05:47:07;8.40;99.90
20483;DHT22;10400;53.198;6.592;2024-03-02T05:49:34;8.50;99.90
20483;DHT22;10400;53.198;6.592;2024-03-02T05:52:00;8.50;99.90
20483;DHT22;10400;53.198;6.592;2024-03-02T05:54:25;8.50;99.90
20483;DHT22;10400;53.198;6.592;2024-03-02T05:56:51;8.50;99.90
20483;DHT22;10400;53.198;6.592;2024-03-02T05:59:17;8.50;99.90
20483;DHT22;10400;53.198;6.592;2024-03-02T06:01:44;8.50;99.90
20483;DHT22;10400;53.198;6.592;2024-03-02T06:04:10;8.50;99.90
20483;DHT22;10400;53.198;6.592;2024-03-02T06:06:41;8.50;99.90
20483;DHT22;10400;53.198;6.592;2024-03-02T06:09:07;8.60;99.90
20483;DHT22;10400;53.198;6.592;2024-03-02T06:11:40;8.60;99.90
20483;DHT22;10400;53.198;6.592;2024-03-02T06:14:09;8.60;99.90
20483;DHT22;10400;53.198;6.592;2024-03-02T06:16:35;8.60;99.90
20483;DHT22;10400;53.198;6.592;2024-03-02T06:19:01;8.50;99.90
20483;DHT22;10400;53.198;6.592;2024-03-02T06:21:27;8.50;99.90
20483;DHT22;10400;53.198;6.592;2024-03-02T06:23:53;8.60;99.90
20483;DHT22;10400;53.198;6.592;2024-03-02T06:26:19;8.60;99.90
20483;DHT22;10400;53.198;6.592;2024-03-02T06:28:45;8.50;99.90
20483;DHT22;10400;53.198;6.592;2024-03-02T06:31:11;8.50;99.90
20483;DHT22;10400;53.198;6.592;2024-03-02T06:33:37;8.50;99.90
20483;DHT22;10400;53.198;6.592;2024-03-02T06:36:03;8.50;99.90
20483;DHT22;10400;53.198;6.592;2024-03-02T06:38:29;8.40;99.90
20483;DHT22;10400;53.198;6.592;2024-03-02T06:40:54;8.40;99.90
20483;DHT22;10400;53.198;6.592;2024-03-02T06:43:21;8.30;99.90
20483;DHT22;10400;53.198;6.592;2024-03-02T06:45:50;8.40;99.90
20483;DHT22;10400;53.198;6.592;2024-03-02T06:48:19;8.40;99.90
20483;DHT22;10400;53.198;6.592;2024-03-02T06:50:49;8.40;99.90
20483;DHT22;10400;53.198;6.592;2024-03-02T06:53:15;8.40;99.90
20483;DHT22;10400;53.198;6.592;2024-03-02T06:55:43;8.40;99.90
20483;DHT22;10400;53.198;6.592;2024-03-02T06:58:11;8.40;99.90
20483;DHT22;10400;53.198;6.592;2024-03-02T07:00:36;8.40;99.90
20483;DHT22;10400;53.198;6.592;2024-03-02T07:03:02;8.40;99.90
20483;DHT22;10400;53.198;6.592;2024-03-02T07:05:27;8.40;99.90
20483;DHT22;10400;53.198;6.592;2024-03-02T07:07:53;8.40;99.90
20483;DHT22;10400;53.198;6.592;2024-03-02T07:10:19;8.40;99.90
20483;DHT22;10400;53.198;6.592;2024-03-02T07:12:44;8.40;99.90
20483;DHT22;10400;53.198;6.592;2024-03-02T07:15:10;8.40;99.90
20483;DHT22;10400;53.198;6.592;2024-03-02T07:17:54;8.30;99.90
20483;DHT22;10400;53.198;6.592;2024-03-02T07:20:19;8.30;99.90
20483;DHT22;10400;53.198;6.592;2024-03-02T07:22:45;8.40;99.90
20483;DHT22;10400;53.198;6.592;2024-03-02T07:25:11;8.40;99.90
20483;DHT22;10400;53.198;6.592;2024-03-02T07:27:36;8.50;99.90
20483;DHT22;10400;53.198;6.592;2024-03-02T07:30:03;8.50;99.90
20483;DHT22;10400;53.198;6.592;2024-03-02T07:32:29;8.60;99.90
20483;DHT22;10400;53.198;6.592;2024-03-02T07:34:54;8.60;99.90
20483;DHT22;10400;53.198;6.592;2024-03-02T07:37:21;8.70;99.90
20483;DHT22;10400;53.198;6.592;2024-03-02T07:39:47;8.70;99.90
20483;DHT22;10400;53.198;6.592;2024-03-02T07:42:13;8.80;99.90
20483;DHT22;10400;53.198;6.592;2024-03-02T07:44:39;8.90;99.90
20483;DHT22;10400;53.198;6.592;2024-03-02T07:47:04;9.00;99.90
20483;DHT22;10400;53.198;6.592;2024-03-02T07:49:30;9.10;99.90
20483;DHT22;10400;53.198;6.592;2024-03-02T07:51:56;9.10;99.90
20483;DHT22;10400;53.198;6.592;2024-03-02T07:54:21;9.10;99.90
20483;DHT22;10400;53.198;6.592;2024-03-02T07:56:47;9.20;99.90
20483;DHT22;10400;53.198;6.592;2024-03-02T07:59:13;9.20;99.90
20483;DHT22;10400;53.198;6.592;2024-03-02T08:01:38;9.10;99.90
20483;DHT22;10400;53.198;6.592;2024-03-02T08:04:04;9.00;99.90
20483;DHT22;10400;53.198;6.592;2024-03-02T08:06:30;9.00;99.90
20483;DHT22;10400;53.198;6.592;2024-03-02T08:09:00;9.00;99.90
20483;DHT22;10400;53.198;6.592;2024-03-02T08:11:26;9.10;99.90
20483;DHT22;10400;53.198;6.592;2024-03-02T08:13:56;9.20;99.90
20483;DHT22;10400;53.198;6.592;2024-03-02T08:16:23;9.30;99.90
20483;DHT22;10400;53.198;6.592;2024-03-02T08:18:49;9.30;99.90
20483;DHT22;10400;53.198;6.592;2024-03-02T08:21:15;9.30;99.90
20483;DHT22;10400;53.198;6.592;2024-03-02T08:23:42;9.20;99.90
20483;DHT22;10400;53.198;6.592;2024-03-02T08:26:11;9.30;99.90
20483;DHT22;10400;53.198;6.592;2024-03-02T08:28:37;9.40;99.90
20483;DHT22;10400;53.198;6.592;2024-03-02T08:31:04;9.40;99.90
20483;DHT22;10400;53.198;6.592;2024-03-02T08:33:29;9.40;99.90
20483;DHT22;10400;53.198;6.592;2024-03-02T08:35:56;9.50;99.90
20483;DHT22;10400;53.198;6.592;2024-03-02T08:38:22;9.60;99.90
20483;DHT22;10400;53.198;6.592;2024-03-02T08:40:48;9.60;99.90
20483;DHT22;10400;53.198;6.592;2024-03-02T08:43:14;9.70;99.90
20483;DHT22;10400;53.198;6.592;2024-03-02T08:45:40;9.80;99.90
20483;DHT22;10400;53.198;6.592;2024-03-02T08:48:07;9.80;99.90
20483;DHT22;10400;53.198;6.592;2024-03-02T08:50:36;10.00;99.90
20483;DHT22;10400;53.198;6.592;2024-03-02T08:53:03;9.90;99.90
20483;DHT22;10400;53.198;6.592;2024-03-02T08:55:29;10.10;99.90
20483;DHT22;10400;53.198;6.592;2024-03-02T08:57:55;10.10;99.90
20483;DHT22;10400;53.198;6.592;2024-03-02T09:00:21;10.20;99.90
20483;DHT22;10400;53.198;6.592;2024-03-02T09:02:48;10.30;93.50
20483;DHT22;10400;53.198;6.592;2024-03-02T09:05:13;10.30;86.60
20483;DHT22;10400;53.198;6.592;2024-03-02T09:07:39;10.40;74.00
20483;DHT22;10400;53.198;6.592;2024-03-02T09:10:06;10.50;90.00
20483;DHT22;10400;53.198;6.592;2024-03-02T09:12:32;10.50;73.70
20483;DHT22;10400;53.198;6.592;2024-03-02T09:14:58;10.50;83.60
20483;DHT22;10400;53.198;6.592;2024-03-02T09:17:24;10.50;71.30
20483;DHT22;10400;53.198;6.592;2024-03-02T09:19:49;10.60;57.60
20483;DHT22;10400;53.198;6.592;2024-03-02T09:22:18;10.60;36.70
20483;DHT22;10400;53.198;6.592;2024-03-02T09:24:44;10.50;28.30
20483;DHT22;10400;53.198;6.592;2024-03-02T09:27:09;10.60;63.50
20483;DHT22;10400;53.198;6.592;2024-03-02T09:29:35;10.80;50.90
20483;DHT22;10400;53.198;6.592;2024-03-02T09:32:00;10.80;27.60
20483;DHT22;10400;53.198;6.592;2024-03-02T09:34:26;10.70;25.30
20483;DHT22;10400;53.198;6.592;2024-03-02T09:36:52;10.70;45.20
20483;DHT22;10400;53.198;6.592;2024-03-02T09:39:17;10.80;49.70
20483;DHT22;10400;53.198;6.592;2024-03-02T09:41:43;10.80;38.60
20483;DHT22;10400;53.198;6.592;2024-03-02T09:44:09;10.70;32.30
20483;DHT22;10400;53.198;6.592;2024-03-02T09:46:35;10.60;35.40
20483;DHT22;10400;53.198;6.592;2024-03-02T09:49:02;10.80;21.50
20483;DHT22;10400;53.198;6.592;2024-03-02T09:51:28;10.80;19.10
20483;DHT22;10400;53.198;6.592;2024-03-02T09:53:55;10.80;5.50
20483;DHT22;10400;53.198;6.592;2024-03-02T09:56:23;10.70;1.00
20483;DHT22;10400;53.198;6.592;2024-03-02T09:58:49;10.70;19.30
20483;DHT22;10400;53.198;6.592;2024-03-02T10:01:15;10.80;6.10
20483;DHT22;10400;53.198;6.592;2024-03-02T10:03:40;10.90;24.00
20483;DHT22;10400;53.198;6.592;2024-03-02T10:06:18;10.90;5.80
20483;DHT22;10400;53.198;6.592;2024-03-02T10:08:44;11.00;2.00
20483;DHT22;10400;53.198;6.592;2024-03-02T10:11:10;11.00;2.40
20483;DHT22;10400;53.198;6.592;2024-03-02T10:13:36;11.10;1.00
20483;DHT22;10400;53.198;6.592;2024-03-02T10:16:11;11.20;1.00
20483;DHT22;10400;53.198;6.592;2024-03-02T10:18:37;11.20;1.00
20483;DHT22;10400;53.198;6.592;2024-03-02T10:21:13;11.10;1.00
20483;DHT22;10400;53.198;6.592;2024-03-02T10:23:39;11.20;1.00
20483;DHT22;10400;53.198;6.592;2024-03-02T10:26:17;11.30;1.00
20483;DHT22;10400;53.198;6.592;2024-03-02T10:28:47;11.40;1.00
20483;DHT22;10400;53.198;6.592;2024-03-02T10:31:17;11.40;1.00
20483;DHT22;10400;53.198;6.592;2024-03-02T10:33:43;11.50;1.00
20483;DHT22;10400;53.198;6.592;2024-03-02T10:36:09;11.50;1.00
20483;DHT22;10400;53.198;6.592;2024-03-02T10:38:35;11.50;1.00
20483;DHT22;10400;53.198;6.592;2024-03-02T10:41:01;11.70;1.00
20483;DHT22;10400;53.198;6.592;2024-03-02T10:43:29;11.80;1.00
20483;DHT22;10400;53.198;6.592;2024-03-02T10:45:55;11.60;1.00
20483;DHT22;10400;53.198;6.592;2024-03-02T10:48:23;11.70;1.00
20483;DHT22;10400;53.198;6.592;2024-03-02T10:50:51;11.70;1.00
20483;DHT22;10400;53.198;6.592;2024-03-02T10:53:16;11.80;1.00
20483;DHT22;10400;53.198;6.592;2024-03-02T10:55:42;11.80;1.00
20483;DHT22;10400;53.198;6.592;2024-03-02T10:58:12;11.70;1.00
20483;DHT22;10400;53.198;6.592;2024-03-02T11:00:38;11.70;1.00
20483;DHT22;10400;53.198;6.592;2024-03-02T11:03:05;11.70;1.00
20483;DHT22;10400;53.198;6.592;2024-03-02T11:05:34;11.90;1.00
20483;DHT22;10400;53.198;6.592;2024-03-02T11:08:11;11.90;1.00
20483;DHT22;10400;53.198;6.592;2024-03-02T11:10:43;11.90;1.00
20483;DHT22;10400;53.198;6.592;2024-03-02T11:13:12;11.90;1.00
20483;DHT22;10400;53.198;6.592;2024-03-02T11:15:40;12.00;1.00
20483;DHT22;10400;53.198;6.592;2024-03-02T11:18:07;11.70;1.00
20483;DHT22;10400;53.198;6.592;2024-03-02T11:20:43;11.90;1.00
20483;DHT22;10400;53.198;6.592;2024-03-02T11:23:09;12.00;1.00
20483;DHT22;10400;53.198;6.592;2024-03-02T11:25:35;12.00;1.00
20483;DHT22;10400;53.198;6.592;2024-03-02T11:28:05;12.00;1.00
20483;DHT22;10400;53.198;6.592;2024-03-02T11:33:07;12.10;1.00
20483;DHT22;10400;53.198;6.592;2024-03-02T11:35:33;12.10;1.00
20483;DHT22;10400;53.198;6.592;2024-03-02T11:38:01;12.20;1.00
20483;DHT22;10400;53.198;6.592;2024-03-02T11:40:27;12.00;1.00
20483;DHT22;10400;53.198;6.592;2024-03-02T11:42:53;12.10;1.00
20483;DHT22;10400;53.198;6.592;2024-03-02T11:45:23;12.20;1.00
20483;DHT22;10400;53.198;6.592;2024-03-02T11:47:57;12.20;1.00
20483;DHT22;10400;53.198;6.592;2024-03-02T11:50:36;12.20;1.00
20483;DHT22;10400;53.198;6.592;2024-03-02T11:53:06;12.20;1.00
20483;DHT22;10400;53.198;6.592;2024-03-02T11:55:35;12.30;21.50
20483;DHT22;10400;53.198;6.592;2024-03-02T11:58:05;12.40;1.00
20483;DHT22;10400;53.198;6.592;2024-03-02T12:00:31;12.30;1.00
20483;DHT22;10400;53.198;6.592;2024-03-02T12:03:15;12.20;1.00
20483;DHT22;10400;53.198;6.592;2024-03-02T12:05:42;12.20;99.90
20483;DHT22;10400;53.198;6.592;2024-03-02T12:08:08;12.30;1.00
20483;DHT22;10400;53.198;6.592;2024-03-02T12:10:35;12.40;1.00
20483;DHT22;10400;53.198;6.592;2024-03-02T12:13:02;12.50;99.90
20483;DHT22;10400;53.198;6.592;2024-03-02T12:15:31;12.40;40.90
20483;DHT22;10400;53.198;6.592;2024-03-02T12:17:59;12.30;1.00
20483;DHT22;10400;53.198;6.592;2024-03-02T12:20:27;12.30;17.80
20483;DHT22;10400;53.198;6.592;2024-03-02T12:22:56;12.10;59.30
20483;DHT22;10400;53.198;6.592;2024-03-02T12:25:24;12.10;99.90
20483;DHT22;10400;53.198;6.592;2024-03-02T12:27:52;12.20;1.00
20483;DHT22;10400;53.198;6.592;2024-03-02T12:30:19;12.20;1.00
20483;DHT22;10400;53.198;6.592;2024-03-02T12:32:45;12.40;99.90
20483;DHT22;10400;53.198;6.592;2024-03-02T12:35:12;12.60;1.00
20483;DHT22;10400;53.198;6.592;2024-03-02T12:37:49;12.60;99.90
20483;DHT22;10400;53.198;6.592;2024-03-02T12:40:17;12.70;99.90
20483;DHT22;10400;53.198;6.592;2024-03-02T12:42:48;12.60;1.00
20483;DHT22;10400;53.198;6.592;2024-03-02T12:45:14;12.60;99.90
20483;DHT22;10400;53.198;6.592;2024-03-02T12:47:40;12.40;1.00
20483;DHT22;10400;53.198;6.592;2024-03-02T12:50:07;12.40;1.00
20483;DHT22;10400;53.198;6.592;2024-03-02T12:52:33;12.30;1.00
20483;DHT22;10400;53.198;6.592;2024-03-02T12:55:04;12.40;1.00
20483;DHT22;10400;53.198;6.592;2024-03-02T12:57:31;12.50;99.90
20483;DHT22;10400;53.198;6.592;2024-03-02T13:00:02;12.70;1.00
20483;DHT22;10400;53.198;6.592;2024-03-02T13:02:35;12.80;1.00
20483;DHT22;10400;53.198;6.592;2024-03-02T13:05:00;12.80;99.90
20483;DHT22;10400;53.198;6.592;2024-03-02T13:07:27;12.50;1.00
20483;DHT22;10400;53.198;6.592;2024-03-02T13:09:56;12.40;99.90
20483;DHT22;10400;53.198;6.592;2024-03-02T13:12:23;12.50;99.90
20483;DHT22;10400;53.198;6.592;2024-03-02T13:14:52;12.60;1.00
20483;DHT22;10400;53.198;6.592;2024-03-02T13:17:19;12.60;92.50
20483;DHT22;10400;53.198;6.592;2024-03-02T13:19:55;12.80;1.00
20483;DHT22;10400;53.198;6.592;2024-03-02T13:22:21;12.80;99.90
20483;DHT22;10400;53.198;6.592;2024-03-02T13:24:48;12.80;1.00
20483;DHT22;10400;53.198;6.592;2024-03-02T13:27:14;12.90;99.90
20483;DHT22;10400;53.198;6.592;2024-03-02T13:29:39;13.10;99.90
20483;DHT22;10400;53.198;6.592;2024-03-02T13:32:05;13.00;18.80
20483;DHT22;10400;53.198;6.592;2024-03-02T13:34:31;12.90;1.00
20483;DHT22;10400;53.198;6.592;2024-03-02T13:36:56;12.80;99.90
20483;DHT22;10400;53.198;6.592;2024-03-02T13:39:22;12.90;99.90
20483;DHT22;10400;53.198;6.592;2024-03-02T13:41:48;12.70;99.90
20483;DHT22;10400;53.198;6.592;2024-03-02T13:44:28;12.60;1.00
20483;DHT22;10400;53.198;6.592;2024-03-02T13:46:53;12.50;99.90
20483;DHT22;10400;53.198;6.592;2024-03-02T13:49:19;12.50;1.00
20483;DHT22;10400;53.198;6.592;2024-03-02T13:51:45;12.50;1.00
20483;DHT22;10400;53.198;6.592;2024-03-02T13:54:11;12.50;99.90
20483;DHT22;10400;53.198;6.592;2024-03-02T13:56:37;12.50;99.90
20483;DHT22;10400;53.198;6.592;2024-03-02T13:59:04;12.60;1.00
20483;DHT22;10400;53.198;6.592;2024-03-02T14:01:31;12.70;1.00
20483;DHT22;10400;53.198;6.592;2024-03-02T14:03:58;12.80;34.40
20483;DHT22;10400;53.198;6.592;2024-03-02T14:06:23;12.80;42.40
20483;DHT22;10400;53.198;6.592;2024-03-02T14:08:51;12.90;1.00
20483;DHT22;10400;53.198;6.592;2024-03-02T14:11:17;12.90;1.00
20483;DHT22;10400;53.198;6.592;2024-03-02T14:13:43;12.90;76.70
20483;DHT22;10400;53.198;6.592;2024-03-02T14:16:10;12.90;1.00
20483;DHT22;10400;53.198;6.592;2024-03-02T14:18:36;13.00;99.90
20483;DHT22;10400;53.198;6.592;2024-03-02T14:21:02;13.10;1.00
20483;DHT22;10400;53.198;6.592;2024-03-02T14:23:29;13.10;99.90
20483;DHT22;10400;53.198;6.592;2024-03-02T14:25:55;13.10;1.00
20483;DHT22;10400;53.198;6.592;2024-03-02T14:28:21;13.10;99.90
20483;DHT22;10400;53.198;6.592;2024-03-02T14:30:46;13.10;99.90
20483;DHT22;10400;53.198;6.592;2024-03-02T14:33:12;13.00;99.90
20483;DHT22;10400;53.198;6.592;2024-03-02T14:35:39;13.00;99.90
20483;DHT22;10400;53.198;6.592;2024-03-02T14:38:04;13.10;1.00
20483;DHT22;10400;53.198;6.592;2024-03-02T14:40:30;13.20;99.90
20483;DHT22;10400;53.198;6.592;2024-03-02T14:42:56;13.10;52.50
20483;DHT22;10400;53.198;6.592;2024-03-02T14:45:21;13.20;1.00
20483;DHT22;10400;53.198;6.592;2024-03-02T14:47:47;13.30;99.90
20483;DHT22;10400;53.198;6.592;2024-03-02T14:50:13;13.40;1.00
20483;DHT22;10400;53.198;6.592;2024-03-02T14:52:41;13.20;99.90
20483;DHT22;10400;53.198;6.592;2024-03-02T14:55:07;13.30;1.00
20483;DHT22;10400;53.198;6.592;2024-03-02T14:57:33;13.10;1.00
20483;DHT22;10400;53.198;6.592;2024-03-02T14:59:59;13.10;99.90
20483;DHT22;10400;53.198;6.592;2024-03-02T15:02:25;13.10;1.00
20483;DHT22;10400;53.198;6.592;2024-03-02T15:04:54;13.10;99.90
20483;DHT22;10400;53.198;6.592;2024-03-02T15:07:20;13.10;47.20
20483;DHT22;10400;53.198;6.592;2024-03-02T15:09:45;13.10;1.00
20483;DHT22;10400;53.198;6.592;2024-03-02T15:12:11;13.20;99.90
20483;DHT22;10400;53.198;6.592;2024-03-02T15:14:38;13.20;1.00
20483;DHT22;10400;53.198;6.592;2024-03-02T15:17:12;13.20;99.90
20483;DHT22;10400;53.198;6.592;2024-03-02T15:19:38;13.20;1.00
20483;DHT22;10400;53.198;6.592;2024-03-02T15:22:03;13.20;99.90
20483;DHT22;10400;53.198;6.592;2024-03-02T15:24:29;13.10;1.00
20483;DHT22;10400;53.198;6.592;2024-03-02T15:26:54;13.00;11.10
20483;DHT22;10400;53.198;6.592;2024-03-02T15:29:20;13.00;1.00
20483;DHT22;10400;53.198;6.592;2024-03-02T15:31:47;13.00;99.90
20483;DHT22;10400;53.198;6.592;2024-03-02T15:34:13;12.90;98.00
20483;DHT22;10400;53.198;6.592;2024-03-02T15:36:38;13.00;6.30
20483;DHT22;10400;53.198;6.592;2024-03-02T15:39:04;12.90;95.50
20483;DHT22;10400;53.198;6.592;2024-03-02T15:41:34;13.00;99.90
20483;DHT22;10400;53.198;6.592;2024-03-02T15:43:59;13.00;99.90
20483;DHT22;10400;53.198;6.592;2024-03-02T15:46:25;13.00;1.00
20483;DHT22;10400;53.198;6.592;2024-03-02T15:48:50;13.00;99.90